Time;durP1;ratioP1;P1;durP2;ratioP2;P2;SDS_P1;SDS_P2;PMS_P1;PMS_P2;Temp;Humidity;BMP_temperature;BMP_pressure;BME280_temperature;BME280_humidity;BME280_pressure;Samples;Min_cycle;Max_cycle;Signal;HPM_P1;HPM_P2
2020/12/26 00:01:28;;;;;;;16.63;8.55;;;-3.70;99.90;;;;;;5072062;28;20177;-52
2020/12/26 00:03:54;;;;;;;17.30;9.02;;;-3.70;99.90;;;;;;5070540;28;20185;-49
2020/12/26 00:06:21;;;;;;;18.38;9.13;;;-3.60;99.90;;;;;;5072200;28;20181;-48
2020/12/26 00:08:47;;;;;;;13.63;7.85;;;-3.60;99.90;;;;;;5064377;28;20947;-49
2020/12/26 00:11:15;;;;;;;15.60;7.05;;;-3.50;99.90;;;;;;5070287;28;20177;-49
2020/12/26 00:13:41;;;;;;;16.50;8.10;;;-3.40;99.90;;;;;;5071757;28;20214;-49
2020/12/26 00:16:08;;;;;;;16.40;8.05;;;-3.30;99.90;;;;;;5071583;28;20218;-50
2020/12/26 00:18:34;;;;;;;14.38;7.72;;;-3.20;99.90;;;;;;5072362;28;20752;-48
2020/12/26 00:21:07;;;;;;;14.65;7.53;;;-3.20;99.90;;;;;;5071361;28;20178;-48
2020/12/26 00:23:33;;;;;;;16.38;7.53;;;-3.10;99.90;;;;;;5071900;28;20181;-51
2020/12/26 00:26:00;;;;;;;12.48;7.00;;;-3.10;99.90;;;;;;5071544;28;20185;-48
2020/12/26 00:28:26;;;;;;;14.80;6.57;;;-3.00;99.90;;;;;;5070401;28;20265;-48
2020/12/26 00:30:52;;;;;;;16.00;6.70;;;-2.90;99.90;;;;;;5071711;28;20170;-49
2020/12/26 00:33:18;;;;;;;14.30;6.40;;;-2.90;99.90;;;;;;5071547;28;20206;-51
2020/12/26 00:35:44;;;;;;;11.50;6.30;;;-2.80;99.90;;;;;;5070408;28;20170;-49
2020/12/26 00:38:11;;;;;;;10.35;5.55;;;-2.80;99.90;;;;;;5071026;28;20186;-48
2020/12/26 00:40:37;;;;;;;11.68;5.40;;;-2.80;99.90;;;;;;5071773;28;20217;-52
2020/12/26 00:43:03;;;;;;;11.25;5.78;;;-2.70;99.90;;;;;;5071356;28;20178;-51
2020/12/26 00:45:29;;;;;;;12.35;6.60;;;-2.70;99.90;;;;;;5071102;28;20193;-50
2020/12/26 00:47:55;;;;;;;15.43;6.70;;;-2.70;99.90;;;;;;5071069;28;20213;-48
2020/12/26 00:50:21;;;;;;;17.42;6.95;;;-2.70;99.90;;;;;;5071487;28;20545;-51
2020/12/26 00:52:47;;;;;;;8.95;5.05;;;-2.70;99.90;;;;;;5071094;28;20558;-49
2020/12/26 00:55:14;;;;;;;12.80;5.88;;;-2.60;99.90;;;;;;5071219;28;20178;-48
2020/12/26 00:57:42;;;;;;;14.90;5.43;;;-2.60;99.90;;;;;;5071212;28;20178;-50
2020/12/26 01:00:08;;;;;;;10.60;4.78;;;-2.60;99.90;;;;;;5071203;28;20584;-49
2020/12/26 01:02:34;;;;;;;8.85;4.95;;;-2.60;99.90;;;;;;5070751;28;20201;-52
2020/12/26 01:05:01;;;;;;;10.77;4.65;;;-2.60;99.90;;;;;;5070078;28;20178;-51
2020/12/26 01:07:27;;;;;;;8.85;4.45;;;-2.50;99.90;;;;;;5071349;28;20196;-49
2020/12/26 01:09:53;;;;;;;7.65;4.00;;;-2.50;99.90;;;;;;5070988;28;20174;-49
2020/12/26 01:12:20;;;;;;;9.40;3.95;;;-2.50;99.90;;;;;;5071218;28;20561;-51
2020/12/26 01:14:46;;;;;;;7.80;4.15;;;-2.50;99.90;;;;;;5071615;28;20170;-51
2020/12/26 01:17:12;;;;;;;8.18;4.07;;;-2.40;99.90;;;;;;5070872;28;20221;-53
2020/12/26 01:19:39;;;;;;;9.20;4.53;;;-2.40;99.90;;;;;;5069603;28;20173;-49
2020/12/26 01:22:05;;;;;;;6.38;3.67;;;-2.40;99.90;;;;;;5052760;28;20190;-48
2020/12/26 01:24:31;;;;;;;6.75;3.55;;;-2.40;99.90;;;;;;5071630;28;20178;-48
2020/12/26 01:26:57;;;;;;;7.45;3.58;;;-2.30;99.90;;;;;;5070803;28;20182;-49
2020/12/26 01:29:23;;;;;;;6.28;3.53;;;-2.30;99.90;;;;;;5069430;28;20665;-48
2020/12/26 01:31:50;;;;;;;9.02;3.80;;;-2.30;99.90;;;;;;5071511;28;20665;-49
2020/12/26 01:34:19;;;;;;;7.18;3.30;;;-2.30;99.90;;;;;;5070092;28;20541;-51
2020/12/26 01:36:49;;;;;;;7.15;3.55;;;-2.20;99.90;;;;;;5071426;28;20174;-47
2020/12/26 01:39:20;;;;;;;6.25;3.45;;;-2.20;99.90;;;;;;5074464;28;20669;-49
2020/12/26 01:41:55;;;;;;;7.72;3.90;;;-2.20;99.90;;;;;;5067160;28;20208;-52
2020/12/26 01:44:22;;;;;;;5.43;2.90;;;-2.20;99.90;;;;;;5075097;28;20653;-49
2020/12/26 01:46:49;;;;;;;5.28;2.97;;;-2.20;99.90;;;;;;5074592;28;20174;-49
2020/12/26 01:49:16;;;;;;;5.65;2.90;;;-2.20;99.90;;;;;;5073209;28;20194;-50
2020/12/26 01:51:42;;;;;;;7.05;3.10;;;-2.10;99.90;;;;;;5074455;28;20173;-49
2020/12/26 01:54:09;;;;;;;7.00;3.20;;;-2.10;99.90;;;;;;5074192;28;20205;-52
2020/12/26 01:56:35;;;;;;;5.43;2.88;;;-2.10;99.90;;;;;;5073182;28;20166;-50
2020/12/26 01:59:01;;;;;;;5.85;2.90;;;-2.10;99.90;;;;;;5072803;28;20194;-51
2020/12/26 02:01:38;;;;;;;6.63;3.00;;;-2.10;99.90;;;;;;5072745;28;20170;-49
2020/12/26 02:04:04;;;;;;;7.68;3.08;;;-2.10;99.90;;;;;;5072161;28;20181;-49
2020/12/26 02:06:38;;;;;;;5.75;2.85;;;-2.00;99.90;;;;;;5065032;28;20189;-48
2020/12/26 02:09:05;;;;;;;6.75;3.00;;;-2.00;99.90;;;;;;5062710;28;20183;-49
2020/12/26 02:11:31;;;;;;;5.72;2.33;;;-2.00;99.90;;;;;;5071934;28;20197;-47
2020/12/26 02:13:58;;;;;;;4.47;2.30;;;-2.00;99.90;;;;;;5074072;28;20205;-52
2020/12/26 02:16:24;;;;;;;4.57;2.47;;;-2.00;99.90;;;;;;5074013;28;20218;-48
2020/12/26 02:18:50;;;;;;;4.85;2.42;;;-2.00;99.90;;;;;;5072810;28;20188;-51
2020/12/26 02:21:16;;;;;;;5.03;2.17;;;-1.90;99.90;;;;;;5073200;28;20174;-48
2020/12/26 02:23:46;;;;;;;7.32;2.47;;;-2.00;99.90;;;;;;5074544;28;20630;-48
2020/12/26 02:26:12;;;;;;;5.47;2.30;;;-2.00;99.90;;;;;;5074071;28;20170;-51
2020/12/26 02:28:39;;;;;;;5.90;2.22;;;-2.00;99.90;;;;;;5073983;28;20536;-49
2020/12/26 02:31:06;;;;;;;6.18;2.78;;;-2.00;99.90;;;;;;5074184;28;20177;-50
2020/12/26 02:33:34;;;;;;;4.82;2.60;;;-2.00;99.90;;;;;;5072307;28;20210;-51
2020/12/26 02:36:04;;;;;;;4.35;2.38;;;-1.90;99.90;;;;;;5072631;28;20193;-49
2020/12/26 02:38:30;;;;;;;5.75;2.75;;;-1.90;99.90;;;;;;5072401;28;20186;-51
2020/12/26 02:40:56;;;;;;;5.70;2.58;;;-1.90;99.90;;;;;;5071870;28;20202;-49
2020/12/26 02:43:23;;;;;;;5.63;3.17;;;-1.90;99.90;;;;;;5073494;28;20178;-49
2020/12/26 02:45:55;;;;;;;9.70;2.90;;;-1.90;99.90;;;;;;5073461;28;20173;-49
2020/12/26 02:48:24;;;;;;;5.57;2.13;;;-1.90;99.90;;;;;;5072404;28;20166;-50
2020/12/26 02:50:50;;;;;;;3.35;1.80;;;-1.80;99.90;;;;;;5073216;28;20169;-49
2020/12/26 02:53:16;;;;;;;4.80;2.17;;;-1.80;99.90;;;;;;5072786;28;20212;-49
2020/12/26 02:55:42;;;;;;;9.23;1.98;;;-1.70;99.90;;;;;;5073324;28;20538;-50
2020/12/26 02:58:08;;;;;;;4.18;1.65;;;-1.60;99.90;;;;;;5073742;28;20555;-49
2020/12/26 03:00:35;;;;;;;3.70;1.70;;;-1.40;99.90;;;;;;5072466;28;20185;-48
2020/12/26 03:03:01;;;;;;;3.33;1.67;;;-1.40;99.90;;;;;;5073141;28;20205;-48
2020/12/26 03:05:27;;;;;;;4.88;1.55;;;-1.40;99.90;;;;;;5072577;28;20572;-49
2020/12/26 03:07:53;;;;;;;3.28;1.60;;;-1.40;99.90;;;;;;5073322;28;20185;-48
2020/12/26 03:10:19;;;;;;;3.25;1.38;;;-1.40;99.90;;;;;;5072701;28;20190;-49
2020/12/26 03:12:45;;;;;;;2.63;1.42;;;-1.40;99.90;;;;;;5073135;28;20206;-48
2020/12/26 03:15:11;;;;;;;5.65;1.50;;;-1.30;99.90;;;;;;5073597;28;20182;-49
2020/12/26 03:17:38;;;;;;;2.85;1.40;;;-1.30;99.90;;;;;;5073209;28;20228;-48
2020/12/26 03:20:05;;;;;;;5.72;1.30;;;-1.30;99.90;;;;;;5072919;28;20201;-48
2020/12/26 03:22:31;;;;;;;5.32;1.27;;;-1.30;99.90;;;;;;5072990;28;20173;-51
2020/12/26 03:24:57;;;;;;;2.65;1.30;;;-1.30;99.90;;;;;;5073263;28;20181;-49
2020/12/26 03:27:23;;;;;;;2.58;1.30;;;-1.20;99.90;;;;;;5072446;28;20174;-52
2020/12/26 03:29:50;;;;;;;3.05;1.42;;;-1.20;99.90;;;;;;5073034;28;20489;-48
2020/12/26 03:32:16;;;;;;;2.67;1.30;;;-1.20;99.90;;;;;;5071860;28;20183;-48
2020/12/26 03:34:42;;;;;;;3.42;1.30;;;-1.20;99.90;;;;;;5072281;28;20202;-49
2020/12/26 03:37:08;;;;;;;3.53;1.30;;;-1.20;99.90;;;;;;5072295;28;20182;-50
2020/12/26 03:39:38;;;;;;;3.42;1.00;;;-1.10;99.90;;;;;;5071238;28;20182;-49
2020/12/26 03:42:08;;;;;;;3.63;1.25;;;-1.10;99.90;;;;;;5072164;28;20193;-49
2020/12/26 03:44:34;;;;;;;2.13;1.02;;;-1.10;99.90;;;;;;5069254;28;20178;-52
2020/12/26 03:47:00;;;;;;;2.95;1.20;;;-1.10;99.90;;;;;;5072575;28;20181;-49
2020/12/26 03:49:27;;;;;;;2.83;1.10;;;-1.00;99.90;;;;;;5072659;28;20166;-48
2020/12/26 03:51:53;;;;;;;2.65;1.30;;;-0.90;99.90;;;;;;5071754;28;20174;-48
2020/12/26 03:54:19;;;;;;;3.33;1.25;;;-1.00;99.90;;;;;;5071972;28;20221;-49
2020/12/26 03:56:45;;;;;;;4.90;1.15;;;-0.90;99.90;;;;;;5072219;28;20174;-49
2020/12/26 03:59:12;;;;;;;2.35;1.20;;;-0.90;99.90;;;;;;5067465;28;20177;-52
2020/12/26 04:01:38;;;;;;;2.42;1.10;;;-0.90;99.90;;;;;;5071659;28;20178;-49
2020/12/26 04:04:04;;;;;;;2.85;1.13;;;-0.90;99.90;;;;;;5070927;28;20190;-50
2020/12/26 04:06:31;;;;;;;3.13;1.20;;;-0.80;99.90;;;;;;5071934;28;20169;-52
2020/12/26 04:08:57;;;;;;;3.03;0.98;;;-0.90;99.90;;;;;;5071843;28;20182;-48
2020/12/26 04:11:24;;;;;;;3.42;1.30;;;-0.90;99.90;;;;;;5072032;28;20191;-48
2020/12/26 04:13:50;;;;;;;3.42;0.98;;;-0.90;99.90;;;;;;5071438;28;20202;-49
2020/12/26 04:16:16;;;;;;;3.78;1.50;;;-0.90;99.90;;;;;;5070437;28;20206;-49
2020/12/26 04:18:42;;;;;;;2.65;1.55;;;-0.80;99.90;;;;;;5071734;28;20204;-48
2020/12/26 04:21:09;;;;;;;3.83;1.40;;;-0.80;99.90;;;;;;5071249;28;20529;-51
2020/12/26 04:23:35;;;;;;;3.75;1.10;;;-0.80;99.90;;;;;;5072066;28;20201;-49
2020/12/26 04:26:01;;;;;;;2.53;1.17;;;-0.80;99.90;;;;;;5072258;28;20166;-48
2020/12/26 04:28:27;;;;;;;2.38;1.40;;;-0.80;99.90;;;;;;5071949;28;20173;-51
2020/12/26 04:30:54;;;;;;;2.30;1.25;;;-0.70;99.90;;;;;;5072275;28;20186;-48
2020/12/26 04:33:20;;;;;;;3.42;1.30;;;-0.70;99.90;;;;;;5071593;28;20228;-50
2020/12/26 04:35:46;;;;;;;4.57;1.48;;;-0.70;99.90;;;;;;5070482;28;20188;-49
2020/12/26 04:38:13;;;;;;;3.60;1.60;;;-0.70;99.90;;;;;;5068665;28;20182;-51
2020/12/26 04:40:39;;;;;;;3.80;1.55;;;-0.70;99.90;;;;;;5051813;28;20523;-49
2020/12/26 04:43:06;;;;;;;2.58;1.15;;;-0.70;99.90;;;;;;5065748;28;20186;-49
2020/12/26 04:45:33;;;;;;;3.08;1.33;;;-0.60;99.90;;;;;;5071414;28;20178;-49
2020/12/26 04:48:03;;;;;;;4.38;1.27;;;-0.60;99.90;;;;;;5071418;28;20182;-49
2020/12/26 04:50:31;;;;;;;2.65;1.30;;;-0.50;99.90;;;;;;5071704;28;20193;-48
2020/12/26 04:52:58;;;;;;;3.72;1.45;;;-0.60;99.90;;;;;;5071643;28;20222;-51
2020/12/26 04:55:30;;;;;;;3.03;1.40;;;-0.50;99.90;;;;;;5070494;28;20192;-50
2020/12/26 04:58:09;;;;;;;2.97;1.52;;;-0.50;99.90;;;;;;5071868;28;20166;-48
2020/12/26 05:00:35;;;;;;;2.20;1.20;;;-0.50;99.90;;;;;;5071891;28;20181;-49
2020/12/26 05:03:05;;;;;;;3.70;1.45;;;-0.50;99.90;;;;;;5071844;28;20190;-48
2020/12/26 05:05:35;;;;;;;2.35;1.35;;;-0.50;99.90;;;;;;5070407;28;20626;-48
2020/12/26 05:08:05;;;;;;;3.75;1.10;;;-0.40;99.90;;;;;;5055413;28;20214;-50
2020/12/26 05:10:31;;;;;;;3.53;1.40;;;-0.40;99.90;;;;;;5071063;28;20174;-50
2020/12/26 05:12:58;;;;;;;7.18;1.50;;;-0.40;99.90;;;;;;5073356;28;20569;-51
2020/12/26 05:15:25;;;;;;;2.13;1.30;;;-0.40;99.90;;;;;;5074157;28;20184;-49
2020/12/26 05:17:51;;;;;;;4.43;1.10;;;-0.40;99.90;;;;;;5075472;28;20217;-49
2020/12/26 05:20:17;;;;;;;4.15;1.27;;;-0.40;99.90;;;;;;5074876;28;20178;-49
2020/12/26 05:22:43;;;;;;;3.13;1.35;;;-0.30;99.90;;;;;;5074990;28;20178;-48
2020/12/26 05:25:10;;;;;;;3.03;1.30;;;-0.30;99.90;;;;;;5075059;28;20181;-49
2020/12/26 05:27:36;;;;;;;4.93;1.17;;;-0.30;99.90;;;;;;5075169;28;20189;-48
2020/12/26 05:30:06;;;;;;;2.22;1.20;;;-0.30;99.90;;;;;;5075068;28;20185;-48
2020/12/26 05:32:33;;;;;;;4.72;1.55;;;-0.30;99.90;;;;;;5074627;28;20197;-52
2020/12/26 05:35:06;;;;;;;5.07;1.40;;;-0.30;99.90;;;;;;5074688;28;20194;-49
2020/12/26 05:37:33;;;;;;;3.47;1.50;;;-0.30;99.90;;;;;;5073542;28;20186;-48
2020/12/26 05:40:00;;;;;;;2.10;1.08;;;-0.20;99.90;;;;;;5074689;28;20192;-49
2020/12/26 05:42:27;;;;;;;4.13;1.33;;;-0.20;99.90;;;;;;5074400;28;20666;-48
2020/12/26 05:45:03;;;;;;;4.90;1.40;;;-0.20;99.90;;;;;;5074710;28;20178;-49
2020/12/26 05:47:29;;;;;;;3.45;1.20;;;-0.20;99.90;;;;;;5074482;28;20162;-52
2020/12/26 05:49:55;;;;;;;4.28;1.42;;;-0.20;99.90;;;;;;5072559;28;20174;-51
2020/12/26 05:52:21;;;;;;;4.72;1.25;;;-0.20;99.90;;;;;;5071392;28;20634;-48
2020/12/26 05:54:51;;;;;;;3.67;1.55;;;-0.20;99.90;;;;;;5073361;28;20228;-49
2020/12/26 05:57:18;;;;;;;8.52;1.50;;;-0.20;99.90;;;;;;5073109;28;20185;-48
2020/12/26 05:59:51;;;;;;;2.97;1.45;;;-0.10;99.90;;;;;;5073587;28;20167;-50
2020/12/26 06:02:22;;;;;;;2.40;1.27;;;-0.10;99.90;;;;;;5074063;28;20174;-49
2020/12/26 06:04:59;;;;;;;2.85;1.30;;;-0.10;99.90;;;;;;5074225;28;20510;-48
2020/12/26 06:07:38;;;;;;;2.40;1.42;;;-0.10;99.90;;;;;;5074548;28;20177;-51
2020/12/26 06:10:05;;;;;;;4.30;0.95;;;-0.10;99.90;;;;;;5056285;28;20189;-49
2020/12/26 06:12:32;;;;;;;3.50;1.17;;;-0.10;99.90;;;;;;5057987;28;20180;-50
2020/12/26 06:14:58;;;;;;;3.10;1.10;;;-0.10;99.90;;;;;;5064250;28;20667;-49
2020/12/26 06:17:33;;;;;;;4.47;1.30;;;-0.10;99.90;;;;;;5054132;28;20221;-49
2020/12/26 06:20:01;;;;;;;3.63;1.50;;;-0.10;99.90;;;;;;5071386;28;20197;-49
2020/12/26 06:22:52;;;;;;;3.20;1.30;;;-0.10;99.90;;;;;;5074345;28;20614;-48
2020/12/26 06:25:22;;;;;;;6.20;1.50;;;-0.10;99.90;;;;;;5074405;28;20161;-50
2020/12/26 06:27:50;;;;;;;3.30;1.10;;;-0.10;99.90;;;;;;5074470;28;20178;-48
2020/12/26 06:30:17;;;;;;;3.35;1.40;;;-0.10;99.90;;;;;;5074170;28;20176;-50
2020/12/26 06:32:45;;;;;;;2.53;1.50;;;-0.10;99.90;;;;;;5073787;28;20170;-52
2020/12/26 06:35:11;;;;;;;2.58;1.40;;;-0.10;99.90;;;;;;5054842;28;20642;-49
2020/12/26 06:37:37;;;;;;;3.05;1.40;;;-0.10;99.90;;;;;;5055881;28;20178;-49
2020/12/26 06:40:27;;;;;;;3.13;1.60;;;0.00;99.90;;;;;;5072364;28;20182;-49
2020/12/26 06:42:53;;;;;;;3.40;1.10;;;0.00;99.90;;;;;;5072905;28;20646;-49
2020/12/26 06:45:32;;;;;;;2.70;1.50;;;0.00;99.90;;;;;;5071469;28;20202;-48
2020/12/26 06:47:58;;;;;;;3.13;1.25;;;0.00;99.90;;;;;;5069464;28;20196;-52
2020/12/26 06:50:32;;;;;;;4.43;1.42;;;0.00;99.90;;;;;;5065951;28;20190;-49
2020/12/26 06:52:58;;;;;;;4.70;1.42;;;0.00;99.90;;;;;;5056488;28;20171;-48
2020/12/26 06:55:47;;;;;;;3.22;1.30;;;0.10;99.90;;;;;;5064438;28;20170;-51
2020/12/26 06:58:25;;;;;;;3.33;1.40;;;0.10;99.90;;;;;;5074577;28;20190;-48
2020/12/26 07:00:51;;;;;;;3.28;1.40;;;0.10;99.90;;;;;;5073847;28;20197;-50
2020/12/26 07:03:21;;;;;;;1.55;1.13;;;0.10;99.90;;;;;;5072906;28;20182;-50
2020/12/26 07:05:47;;;;;;;6.70;1.60;;;0.10;99.90;;;;;;5072718;28;20182;-48
2020/12/26 07:08:30;;;;;;;7.28;1.45;;;0.10;99.90;;;;;;5073754;28;20193;-48
2020/12/26 07:10:58;;;;;;;4.95;1.55;;;0.10;99.90;;;;;;5072654;28;20731;-49
2020/12/26 07:13:52;;;;;;;4.70;1.50;;;0.10;99.90;;;;;;5062399;28;20215;-49
2020/12/26 07:16:45;;;;;;;4.57;1.70;;;0.20;99.90;;;;;;5051730;28;20221;-49
2020/12/26 07:19:21;;;;;;;4.05;1.38;;;0.20;99.90;;;;;;5053608;28;20245;-50
2020/12/26 07:22:09;;;;;;;4.22;1.90;;;0.20;99.90;;;;;;5053374;28;20171;-50
2020/12/26 07:24:45;;;;;;;5.80;1.38;;;0.20;99.90;;;;;;5053382;28;20159;-50
2020/12/26 07:27:25;;;;;;;12.35;3.67;;;0.20;99.90;;;;;;5053590;28;20185;-49
2020/12/26 07:29:58;;;;;;;5.82;1.60;;;0.20;99.90;;;;;;5053409;28;20166;-48
2020/12/26 07:35:12;;;;;;;4.38;1.50;;;0.20;99.90;;;;;;5067442;28;20220;-50
2020/12/26 07:37:42;;;;;;;4.97;1.83;;;0.20;99.90;;;;;;5072704;28;20600;-49
2020/12/26 07:40:08;;;;;;;3.78;1.70;;;0.20;99.90;;;;;;5054039;28;20187;-50
2020/12/26 07:42:34;;;;;;;5.35;2.00;;;0.20;99.90;;;;;;5056662;28;20174;-50
2020/12/26 07:45:14;;;;;;;5.50;2.10;;;0.30;99.90;;;;;;5072494;28;20634;-49
2020/12/26 07:47:44;;;;;;;4.43;2.10;;;0.30;99.90;;;;;;5072564;28;20536;-49
2020/12/26 07:50:11;;;;;;;7.35;1.88;;;0.30;99.90;;;;;;5072865;28;20190;-47
2020/12/26 07:52:37;;;;;;;5.65;2.08;;;0.30;99.90;;;;;;5069711;28;20630;-48
2020/12/26 07:55:04;;;;;;;6.25;2.40;;;0.30;99.90;;;;;;5072449;28;20212;-49
2020/12/26 07:57:30;;;;;;;4.20;2.33;;;0.30;99.90;;;;;;5072553;28;20192;-51
2020/12/26 07:59:57;;;;;;;4.65;2.63;;;0.30;99.90;;;;;;5069712;28;20190;-50
2020/12/26 08:02:23;;;;;;;9.07;3.40;;;0.30;99.90;;;;;;5071541;28;20166;-49
2020/12/26 08:04:49;;;;;;;5.53;2.45;;;0.40;99.90;;;;;;5071063;28;20204;-47
2020/12/26 08:07:17;;;;;;;5.35;2.80;;;0.40;99.90;;;;;;5071786;28;20178;-46
2020/12/26 08:09:52;;;;;;;7.20;4.10;;;0.40;99.90;;;;;;5071760;28;20182;-47
2020/12/26 08:12:19;;;;;;;8.00;3.47;;;0.40;99.90;;;;;;5070750;28;20397;-50
2020/12/26 08:14:55;;;;;;;9.70;4.10;;;0.60;99.90;;;;;;5070650;28;20402;-48
2020/12/26 08:17:22;;;;;;;8.25;3.30;;;0.70;99.90;;;;;;5068273;28;20198;-50
2020/12/26 08:19:48;;;;;;;10.38;3.28;;;0.80;99.90;;;;;;5069364;28;20197;-46
2020/12/26 08:22:14;;;;;;;7.60;3.50;;;0.90;99.90;;;;;;5070150;28;20170;-48
2020/12/26 08:24:41;;;;;;;4.28;2.33;;;0.90;99.90;;;;;;5071606;28;20177;-46
2020/12/26 08:27:07;;;;;;;9.82;4.90;;;0.90;99.90;;;;;;5070371;28;20186;-46
2020/12/26 08:29:33;;;;;;;7.47;2.70;;;0.90;99.90;;;;;;5069972;28;20174;-47
2020/12/26 08:32:01;;;;;;;5.78;2.08;;;0.80;99.90;;;;;;5071197;28;20182;-47
2020/12/26 08:34:58;;;;;;;7.18;2.35;;;0.80;99.90;;;;;;5069183;28;20677;-47
2020/12/26 08:37:27;;;;;;;3.65;2.15;;;0.80;99.90;;;;;;5051320;28;20182;-48
2020/12/26 08:39:57;;;;;;;10.32;2.33;;;0.90;99.90;;;;;;5066220;28;20185;-47
2020/12/26 08:42:23;;;;;;;4.85;2.10;;;0.90;99.90;;;;;;5063092;28;20201;-49
2020/12/26 08:44:50;;;;;;;9.00;2.35;;;0.90;99.90;;;;;;5068734;28;20186;-49
2020/12/26 08:47:32;;;;;;;3.58;2.20;;;1.00;99.90;;;;;;5069064;28;20190;-52
2020/12/26 08:49:58;;;;;;;10.90;3.30;;;1.00;99.90;;;;;;5065760;28;20195;-61
2020/12/26 08:52:27;;;;;;;6.72;3.95;;;1.10;99.90;;;;;;5060153;28;20185;-49
2020/12/26 08:55:01;;;;;;;13.20;6.30;;;1.10;99.90;;;;;;5058994;28;20209;-49
2020/12/26 08:57:28;;;;;;;11.35;4.97;;;1.10;99.90;;;;;;5059382;28;20170;-51
2020/12/26 08:59:56;;;;;;;13.05;5.55;;;1.20;99.90;;;;;;5057174;28;20182;-50
2020/12/26 09:02:22;;;;;;;10.98;5.40;;;1.20;99.90;;;;;;5061714;28;20960;-47
2020/12/26 09:04:49;;;;;;;7.25;3.88;;;1.20;99.90;;;;;;5066480;28;20669;-48
2020/12/26 09:07:21;;;;;;;7.88;4.38;;;1.30;99.90;;;;;;5061985;28;20174;-49
2020/12/26 09:09:48;;;;;;;12.90;6.45;;;1.30;99.90;;;;;;5063718;28;20209;-47
2020/12/26 09:12:15;;;;;;;9.55;5.80;;;1.30;99.90;;;;;;5064638;28;20186;-48
2020/12/26 09:14:41;;;;;;;10.27;5.28;;;1.40;99.90;;;;;;5066695;28;20201;-62
2020/12/26 09:17:09;;;;;;;6.97;3.20;;;1.40;99.90;;;;;;5062846;28;20225;-47
2020/12/26 09:19:45;;;;;;;6.15;2.42;;;1.50;99.90;;;;;;5064518;28;20174;-51
2020/12/26 09:22:11;;;;;;;3.70;1.92;;;1.50;99.90;;;;;;5060163;28;20261;-48
2020/12/26 09:24:38;;;;;;;6.80;2.28;;;1.50;99.90;;;;;;5062319;28;20638;-47
2020/12/26 09:27:04;;;;;;;5.65;2.28;;;1.50;99.90;;;;;;5067771;28;20212;-48
2020/12/26 09:29:30;;;;;;;5.90;2.10;;;1.60;99.90;;;;;;5063221;28;20169;-47
2020/12/26 09:32:06;;;;;;;6.65;1.33;;;1.70;99.90;;;;;;5061459;28;20189;-47
2020/12/26 09:34:35;;;;;;;8.00;2.20;;;1.70;99.90;;;;;;5063606;28;20213;-50
2020/12/26 09:37:05;;;;;;;5.13;2.08;;;1.80;99.90;;;;;;5062074;28;20186;-48
2020/12/26 09:39:31;;;;;;;5.80;1.80;;;1.80;99.90;;;;;;5062533;28;20179;-47
2020/12/26 09:41:57;;;;;;;5.72;1.75;;;1.90;99.90;;;;;;5062644;28;20205;-48
2020/12/26 09:44:23;;;;;;;6.55;1.67;;;1.90;99.90;;;;;;5069023;28;20533;-47
2020/12/26 09:46:56;;;;;;;5.35;1.77;;;2.00;99.90;;;;;;5062152;28;20186;-48
2020/12/26 09:49:22;;;;;;;6.60;1.70;;;2.00;99.90;;;;;;5065619;28;20162;-48
2020/12/26 09:51:48;;;;;;;11.43;2.00;;;2.10;99.90;;;;;;5062395;28;20197;-47
2020/12/26 09:54:14;;;;;;;8.23;1.63;;;2.10;99.90;;;;;;5061149;28;20210;-49
2020/12/26 09:56:40;;;;;;;4.18;1.60;;;2.20;99.90;;;;;;5061571;28;20260;-48
2020/12/26 09:59:06;;;;;;;4.57;1.60;;;2.20;99.90;;;;;;5069069;28;20555;-48
2020/12/26 10:01:34;;;;;;;8.00;1.88;;;2.30;99.90;;;;;;5059689;28;20667;-46
2020/12/26 10:04:00;;;;;;;11.30;1.98;;;2.30;99.90;;;;;;5068023;28;20201;-47
2020/12/26 10:06:26;;;;;;;5.32;1.98;;;2.40;99.90;;;;;;5065621;28;20190;-48
2020/12/26 10:08:53;;;;;;;7.75;2.00;;;2.40;99.90;;;;;;5068012;28;20185;-46
2020/12/26 10:11:19;;;;;;;9.02;2.10;;;2.40;99.90;;;;;;5069370;28;20174;-47
2020/12/26 10:13:46;;;;;;;8.23;1.83;;;2.40;99.90;;;;;;5070773;28;20689;-47
2020/12/26 10:16:15;;;;;;;7.95;1.75;;;2.50;99.90;;;;;;5062125;28;20705;-47
2020/12/26 10:18:41;;;;;;;3.50;1.90;;;2.50;99.90;;;;;;5063905;28;20166;-47
2020/12/26 10:21:08;;;;;;;6.80;2.10;;;2.50;99.90;;;;;;5060796;28;20542;-48
2020/12/26 10:23:34;;;;;;;5.57;1.88;;;2.50;99.90;;;;;;5061798;28;20170;-47
2020/12/26 10:26:04;;;;;;;8.18;2.45;;;2.50;99.90;;;;;;5069186;28;20190;-49
2020/12/26 10:28:30;;;;;;;5.75;1.98;;;2.50;99.90;;;;;;5064077;28;20182;-50
2020/12/26 10:30:56;;;;;;;4.88;1.83;;;2.50;99.90;;;;;;5064605;28;20639;-47
2020/12/26 10:33:23;;;;;;;7.68;2.25;;;2.50;99.90;;;;;;5061522;28;20178;-47
2020/12/26 10:35:49;;;;;;;7.45;2.20;;;2.60;99.90;;;;;;5063832;28;20707;-47
2020/12/26 10:38:15;;;;;;;8.85;2.15;;;2.60;99.90;;;;;;5059647;28;20650;-47
2020/12/26 10:40:41;;;;;;;11.35;1.88;;;2.60;99.90;;;;;;5065510;28;20213;-47
2020/12/26 10:43:07;;;;;;;9.35;2.35;;;2.60;99.90;;;;;;5068730;28;20289;-49
2020/12/26 10:45:33;;;;;;;6.38;2.15;;;2.70;99.90;;;;;;5061935;28;20174;-48
2020/12/26 10:47:59;;;;;;;11.30;2.65;;;2.60;99.90;;;;;;5068498;28;20192;-47
2020/12/26 10:50:26;;;;;;;10.10;2.42;;;2.70;99.90;;;;;;5062193;28;20602;-47
2020/12/26 10:52:52;;;;;;;10.20;2.83;;;2.70;99.90;;;;;;5060274;28;20189;-47
2020/12/26 10:55:18;;;;;;;10.00;2.45;;;2.70;99.90;;;;;;5066150;28;20215;-46
2020/12/26 10:57:44;;;;;;;10.40;2.13;;;2.70;99.90;;;;;;5060660;28;20194;-47
2020/12/26 11:00:13;;;;;;;6.35;2.40;;;2.70;99.90;;;;;;5062482;28;20122;-48
2020/12/26 11:02:39;;;;;;;13.45;3.33;;;2.80;99.90;;;;;;5065800;28;20864;-47
2020/12/26 11:05:06;;;;;;;12.18;3.53;;;2.80;99.90;;;;;;5067562;28;20406;-47
2020/12/26 11:07:33;;;;;;;10.60;2.53;;;2.80;99.90;;;;;;5061266;28;20432;-49
2020/12/26 11:09:59;;;;;;;13.70;2.55;;;2.90;99.90;;;;;;5065748;28;20382;-47
2020/12/26 11:12:28;;;;;;;8.93;2.50;;;2.90;99.90;;;;;;5037204;28;20175;-47
2020/12/26 11:14:54;;;;;;;8.38;2.00;;;2.90;99.90;;;;;;5071829;28;20717;-47
2020/12/26 11:17:20;;;;;;;8.45;2.08;;;2.90;99.90;;;;;;5057039;28;20218;-47
2020/12/26 11:19:46;;;;;;;6.65;1.88;;;3.00;99.90;;;;;;5057381;28;20190;-47
2020/12/26 11:22:13;;;;;;;15.05;2.38;;;3.00;99.90;;;;;;5061442;28;20177;-46
2020/12/26 11:24:39;;;;;;;9.57;2.15;;;3.00;99.90;;;;;;5053288;28;20174;-48
2020/12/26 11:27:05;;;;;;;6.00;1.85;;;3.10;99.90;;;;;;5059607;28;20170;-48
2020/12/26 11:29:31;;;;;;;6.78;2.17;;;3.10;99.90;;;;;;5054101;28;20189;-48
2020/12/26 11:31:58;;;;;;;9.25;3.97;;;3.10;99.90;;;;;;5054052;28;20183;-47
2020/12/26 11:34:24;;;;;;;4.10;1.92;;;3.10;99.90;;;;;;5057692;28;20210;-49
2020/12/26 11:36:50;;;;;;;8.05;3.05;;;3.20;99.90;;;;;;5070051;28;20205;-47
2020/12/26 11:39:16;;;;;;;7.60;1.98;;;3.20;99.90;;;;;;5067324;28;20603;-47
2020/12/26 11:41:42;;;;;;;11.05;2.05;;;3.20;99.90;;;;;;5059984;28;20558;-47
2020/12/26 11:44:08;;;;;;;10.27;2.08;;;3.20;99.90;;;;;;5068911;28;20661;-47
2020/12/26 11:46:35;;;;;;;5.53;1.40;;;3.30;99.90;;;;;;5060534;28;20875;-47
2020/12/26 11:49:03;;;;;;;8.55;1.83;;;3.30;99.90;;;;;;5071932;28;20185;-47
2020/12/26 11:51:30;;;;;;;13.18;2.08;;;3.30;99.90;;;;;;5060397;28;20182;-49
2020/12/26 11:53:56;;;;;;;7.15;1.45;;;3.30;99.90;;;;;;5055462;28;20526;-49
2020/12/26 11:56:22;;;;;;;7.47;1.27;;;3.40;99.90;;;;;;5051950;28;20674;-47
2020/12/26 11:58:51;;;;;;;8.70;2.15;;;3.50;99.90;;;;;;5051680;28;20182;-48
2020/12/26 12:01:18;;;;;;;4.88;1.20;;;3.50;99.90;;;;;;5054607;28;20185;-47
2020/12/26 12:03:45;;;;;;;6.57;1.25;;;3.60;99.90;;;;;;5066077;28;20174;-51
2020/12/26 12:06:12;;;;;;;6.82;1.15;;;3.70;99.90;;;;;;5071315;28;20205;-47
2020/12/26 12:08:40;;;;;;;9.15;1.33;;;3.70;99.90;;;;;;5071275;28;20180;-50
2020/12/26 12:11:06;;;;;;;6.05;1.10;;;3.80;99.90;;;;;;5059902;28;20186;-50
2020/12/26 12:13:32;;;;;;;10.15;1.23;;;3.90;99.90;;;;;;5065484;28;20186;-56
2020/12/26 12:15:58;;;;;;;9.10;1.15;;;3.90;99.90;;;;;;5065613;28;20233;-50
2020/12/26 12:18:24;;;;;;;7.38;1.50;;;3.90;99.90;;;;;;5062370;28;20175;-50
2020/12/26 12:20:50;;;;;;;6.85;1.10;;;4.00;99.90;;;;;;5064869;28;20562;-48
2020/12/26 12:23:17;;;;;;;10.77;1.00;;;3.90;99.90;;;;;;5062556;28;20663;-48
2020/12/26 12:25:43;;;;;;;4.30;0.90;;;3.90;99.90;;;;;;5068757;28;20190;-47
2020/12/26 12:28:09;;;;;;;6.50;1.10;;;4.00;99.90;;;;;;5065887;28;20177;-48
2020/12/26 12:30:35;;;;;;;10.02;0.93;;;4.00;99.90;;;;;;5064245;28;20196;-51
2020/12/26 12:33:01;;;;;;;11.90;1.38;;;4.00;99.90;;;;;;5069103;28;20588;-47
2020/12/26 12:35:27;;;;;;;8.02;0.95;;;4.10;99.90;;;;;;5066500;28;20570;-49
2020/12/26 12:37:53;;;;;;;14.73;1.00;;;4.10;99.90;;;;;;5063669;28;20189;-48
2020/12/26 12:40:20;;;;;;;9.82;1.13;;;4.20;99.90;;;;;;5061136;28;20210;-49
2020/12/26 12:42:46;;;;;;;6.60;1.13;;;4.20;99.90;;;;;;5060137;28;20192;-47
2020/12/26 12:45:12;;;;;;;7.30;1.20;;;4.20;99.90;;;;;;5063219;28;20181;-49
2020/12/26 12:47:38;;;;;;;16.77;1.90;;;4.20;99.90;;;;;;5056659;28;20388;-47
2020/12/26 12:50:07;;;;;;;11.50;1.48;;;4.20;99.90;;;;;;5063569;28;20389;-50
2020/12/26 12:52:33;;;;;;;9.55;1.30;;;4.20;99.90;;;;;;5054847;28;20394;-47
2020/12/26 12:54:59;;;;;;;12.98;1.52;;;4.20;99.90;;;;;;5064952;28;20430;-49
2020/12/26 12:57:28;;;;;;;13.55;1.65;;;4.20;99.90;;;;;;5068913;28;20782;-48